Time;durP1;ratioP1;P1;durP2;ratioP2;P2;SDS_P1;SDS_P2;PMS_P1;PMS_P2;Temp;Humidity;BMP_temperature;BMP_pressure;BME280_temperature;BME280_humidity;BME280_pressure;Samples;Min_cycle;Max_cycle;Signal;HPM_P1;HPM_P2
2022/08/24 00:01:13;;;;;;;;;;;;;;;18.96;100.00;101718.19;5003911;28;20311;-79
2022/08/24 00:03:39;;;;;;;;;;;;;;;18.93;100.00;101720.22;4998321;28;20006;-79
2022/08/24 00:06:08;;;;;;;;;;;;;;;18.89;100.00;101719.56;4997794;28;20466;-79
2022/08/24 00:08:33;;;;;;;;;;;;;;;18.85;100.00;101726.94;5018889;28;20402;-79
2022/08/24 00:10:58;;;;;;;;;;;;;;;18.81;100.00;101721.91;5005058;28;19947;-78
2022/08/24 00:13:24;;;;;;;;;;;;;;;18.76;100.00;101714.16;5004405;28;20007;-79
2022/08/24 00:15:50;;;;;;;;;;;;;;;18.73;100.00;101717.91;5003757;28;20027;-78
2022/08/24 00:18:16;;;;;;;;;;;;;;;18.71;100.00;101719.84;4999137;28;19964;-78
2022/08/24 00:20:42;;;;;;;;;;;;;;;18.69;100.00;101724.44;5020333;28;20024;-78
2022/08/24 00:23:10;;;;;;;;;;;;;;;18.67;100.00;101737.09;4999827;28;20032;-78
2022/08/24 00:25:36;;;;;;;;;;;;;;;18.65;100.00;101730.97;5019550;28;19929;-78
2022/08/24 00:28:02;;;;;;;;;;;;;;;18.64;100.00;101739.97;5003239;28;20010;-78
2022/08/24 00:30:28;;;;;;;;;;;;;;;18.62;100.00;101735.69;5019158;28;19936;-78
2022/08/24 00:32:54;;;;;;;;;;;;;;;18.59;100.00;101737.56;5019581;28;19974;-78
2022/08/24 00:35:19;;;;;;;;;;;;;;;18.58;100.00;101733.19;5017867;28;20444;-78
2022/08/24 00:37:45;;;;;;;;;;;;;;;18.56;100.00;101729.75;5004335;28;19932;-78
2022/08/24 00:40:16;;;;;;;;;;;;;;;18.55;100.00;101736.06;5015940;28;20020;-78
2022/08/24 00:42:42;;;;;;;;;;;;;;;18.53;100.00;101735.28;5004045;28;19952;-77
2022/08/24 00:45:08;;;;;;;;;;;;;;;18.49;100.00;101731.13;5018685;28;20020;-79
2022/08/24 00:47:38;;;;;;;;;;;;;;;18.48;100.00;101723.16;4999452;28;19921;-78
2022/08/24 00:50:06;;;;;;;;;;;;;;;18.45;100.00;101721.53;5014672;28;20336;-77
2022/08/24 00:52:35;;;;;;;;;;;;;;;18.43;100.00;101726.16;5019277;28;20565;-78
2022/08/24 00:55:07;;;;;;;;;;;;;;;18.42;100.00;101721.75;5000474;28;19932;-78
2022/08/24 00:57:33;;;;;;;;;;;;;;;18.40;100.00;101723.66;5019319;28;19975;-78
2022/08/24 01:00:05;;;;;;;;;;;;;;;18.42;100.00;101721.75;5018757;28;19960;-78
2022/08/24 01:02:32;;;;;;;;;;;;;;;18.40;100.00;101720.97;5017992;28;19933;-77
2022/08/24 01:04:58;;;;;;;;;;;;;;;18.38;100.00;101725.56;5014639;28;19925;-78
2022/08/24 01:07:25;;;;;;;;;;;;;;;18.37;100.00;101722.06;5022427;28;19929;-78
2022/08/24 01:09:51;;;;;;;;;;;;;;;18.37;100.00;101729.22;5021971;28;20007;-78
2022/08/24 01:12:16;;;;;;;;;;;;;;;18.37;100.00;101732.78;5019264;28;19925;-77
2022/08/24 01:14:42;;;;;;;;;;;;;;;18.32;100.00;101722.31;5022057;28;20050;-77
2022/08/24 01:19:53;;;;;;;;;;;;;;;18.24;100.00;101727.31;5002436;28;19971;-77
2022/08/24 01:22:38;;;;;;;;;;;;;;;18.21;100.00;101714.13;5002973;28;19921;-78
2022/08/24 01:25:04;;;;;;;;;;;;;;;18.18;100.00;101714.31;5021698;28;20372;-78
2022/08/24 01:27:29;;;;;;;;;;;;;;;18.17;100.00;101710.78;5002353;28;20359;-78
2022/08/24 01:29:55;;;;;;;;;;;;;;;18.17;100.00;101709.91;5017398;28;20020;-78
2022/08/24 01:32:24;;;;;;;;;;;;;;;18.16;100.00;101706.41;5021762;28;19921;-79
2022/08/24 01:34:50;;;;;;;;;;;;;;;18.20;100.00;101696.34;5021314;28;19922;-77
2022/08/24 01:37:15;;;;;;;;;;;;;;;18.21;100.00;101698.06;5017286;28;19928;-78
2022/08/24 01:39:45;;;;;;;;;;;;;;;18.19;100.00;101708.00;5003938;28;19932;-79
2022/08/24 01:42:10;;;;;;;;;;;;;;;18.18;100.00;101707.16;5021342;28;19994;-78
2022/08/24 01:44:37;;;;;;;;;;;;;;;18.16;100.00;101717.13;5002896;28;20357;-78
2022/08/24 01:47:03;;;;;;;;;;;;;;;18.15;100.00;101715.38;5006390;28;19931;-78
2022/08/24 01:49:29;;;;;;;;;;;;;;;18.18;100.00;101714.31;5017658;28;19921;-78
2022/08/24 01:51:55;;;;;;;;;;;;;;;18.15;100.00;101717.22;5005707;28;21339;-78
2022/08/24 01:54:21;;;;;;;;;;;;;;;18.14;100.00;101721.69;5020064;28;19997;-78
2022/08/24 01:56:46;;;;;;;;;;;;;;;18.12;100.00;101730.78;5001885;28;20120;-78
2022/08/24 01:59:11;;;;;;;;;;;;;;;18.11;100.00;101729.06;5022003;28;20300;-78
2022/08/24 02:01:42;;;;;;;;;;;;;;;18.10;100.00;101724.69;5020214;28;19925;-78
2022/08/24 02:04:07;;;;;;;;;;;;;;;18.10;100.00;101730.91;5011696;28;19932;-78
2022/08/24 02:06:33;;;;;;;;;;;;;;;18.09;100.00;101729.16;4995529;28;21274;-78
2022/08/24 02:08:59;;;;;;;;;;;;;;;18.11;100.00;101729.06;5002228;28;19929;-78
2022/08/24 02:11:25;;;;;;;;;;;;;;;18.11;100.00;101729.06;5012471;28;20540;-78
2022/08/24 02:13:50;;;;;;;;;;;;;;;18.10;100.00;101730.91;5002779;28;20920;-78
2022/08/24 02:16:16;;;;;;;;;;;;;;;18.11;100.00;101729.06;5014641;28;20006;-79
2022/08/24 02:18:41;;;;;;;;;;;;;;;18.09;100.00;101731.00;5015477;28;19925;-78
2022/08/24 02:21:11;;;;;;;;;;;;;;;18.08;100.00;101731.97;5014495;28;19975;-78
2022/08/24 02:23:37;;;;;;;;;;;;;;;18.03;100.00;101730.38;5014975;28;20514;-77
2022/08/24 02:26:03;;;;;;;;;;;;;;;17.98;100.00;101731.66;5013785;28;19925;-78
2022/08/24 02:28:28;;;;;;;;;;;;;;;17.93;100.00;101729.25;5014507;28;19932;-78
2022/08/24 02:30:54;;;;;;;;;;;;;;;17.92;100.00;101731.06;5004804;28;19928;-78
2022/08/24 02:40:23;;;;;;;;;;;;;;;17.86;100.00;101736.81;5017241;28;19944;-79
2022/08/24 02:43:16;;;;;;;;;;;;;;;17.87;100.00;101737.69;4997604;28;20003;-78
2022/08/24 02:46:07;;;;;;;;;;;;;;;17.85;100.00;101728.84;5007906;28;19928;-79
2022/08/24 02:48:58;;;;;;;;;;;;;;;17.84;100.00;101744.09;5008698;28;20011;-79
2022/08/24 02:51:49;;;;;;;;;;;;;;;17.87;100.00;101732.31;5015427;28;19998;-78
2022/08/24 02:54:40;;;;;;;;;;;;;;;17.87;100.00;101730.50;5010290;28;19992;-77
2022/08/24 02:57:06;;;;;;;;;;;;;;;17.89;100.00;101735.75;4986691;28;19929;-77
2022/08/24 02:59:31;;;;;;;;;;;;;;;17.91;100.00;101731.16;5003896;28;19929;-77
2022/08/24 03:01:57;;;;;;;;;;;;;;;17.89;100.00;101733.06;5005205;28;20400;-78
2022/08/24 03:04:22;;;;;;;;;;;;;;;17.90;100.00;101734.78;5041977;28;19928;-77
2022/08/24 03:06:50;;;;;;;;;;;;;;;17.90;100.00;101732.13;5041214;28;19928;-78
2022/08/24 03:09:16;;;;;;;;;;;;;;;17.91;100.00;101742.75;5029251;28;19924;-78
2022/08/24 03:11:41;;;;;;;;;;;;;;;17.93;100.00;101750.69;5036724;28;19935;-78
2022/08/24 03:14:07;;;;;;;;;;;;;;;17.96;100.00;101741.56;5029813;28;20042;-77
2022/08/24 03:16:33;;;;;;;;;;;;;;;17.95;100.00;101743.41;5030451;28;19928;-78
2022/08/24 03:19:00;;;;;;;;;;;;;;;17.95;100.00;101738.06;5029539;28;19924;-78
2022/08/24 03:21:26;;;;;;;;;;;;;;;17.94;100.00;101739.00;5040027;28;19927;-78
2022/08/24 03:23:51;;;;;;;;;;;;;;;17.94;100.00;101744.38;5041376;28;19928;-78
2022/08/24 03:26:17;;;;;;;;;;;;;;;17.94;100.00;101746.19;5037481;28;20660;-79
2022/08/24 03:28:42;;;;;;;;;;;;;;;17.92;100.00;101743.59;5036749;28;20469;-78
2022/08/24 03:31:08;;;;;;;;;;;;;;;17.92;100.00;101743.59;5037063;28;20180;-79
2022/08/24 03:33:33;;;;;;;;;;;;;;;17.90;100.00;101750.88;5036641;28;19935;-78
2022/08/24 03:35:58;;;;;;;;;;;;;;;17.87;100.00;101753.75;5026478;28;20608;-78
2022/08/24 03:38:24;;;;;;;;;;;;;;;17.86;100.00;101754.72;5040314;28;20733;-78
2022/08/24 03:40:49;;;;;;;;;;;;;;;17.85;100.00;101750.28;5040694;28;19929;-78
2022/08/24 03:46:00;;;;;;;;;;;;;;;17.83;100.00;101752.22;5024055;28;20149;-78
2022/08/24 03:48:26;;;;;;;;;;;;;;;17.83;100.00;101744.16;5033038;28;19924;-78
2022/08/24 03:50:54;;;;;;;;;;;;;;;17.80;100.00;101749.72;5025104;28;20383;-78
2022/08/24 03:53:23;;;;;;;;;;;;;;;17.78;100.00;101750.66;5038183;28;19924;-77
2022/08/24 03:55:48;;;;;;;;;;;;;;;17.78;100.00;101752.50;5040713;28;19960;-78
2022/08/24 03:58:14;;;;;;;;;;;;;;;17.76;100.00;101751.75;5020646;28;20016;-78
2022/08/24 04:00:41;;;;;;;;;;;;;;;17.73;100.00;101754.59;5027707;28;19953;-77
2022/08/24 04:03:08;;;;;;;;;;;;;;;17.68;100.00;101762.91;5037761;28;20336;-77
2022/08/24 04:05:33;;;;;;;;;;;;;;;17.67;100.00;101752.28;5038385;28;19920;-77
2022/08/24 04:07:59;;;;;;;;;;;;;;;17.63;100.00;101748.94;5038208;28;20454;-77
2022/08/24 04:10:28;;;;;;;;;;;;;;;17.62;100.00;101760.59;5037408;28;19920;-78
2022/08/24 04:12:53;;;;;;;;;;;;;;;17.59;100.00;101761.66;5019477;28;19929;-78
2022/08/24 04:15:18;;;;;;;;;;;;;;;17.58;100.00;101757.25;5037476;28;19924;-78
2022/08/24 04:17:44;;;;;;;;;;;;;;;17.56;100.00;101764.53;5038206;28;19995;-78
2022/08/24 04:20:09;;;;;;;;;;;;;;;17.55;100.00;101764.59;5038937;28;19981;-78
2022/08/24 04:22:35;;;;;;;;;;;;;;;17.54;100.00;101757.53;5039522;28;19952;-78
2022/08/24 04:25:01;;;;;;;;;;;;;;;17.54;100.00;101766.41;5019311;28;19929;-78
2022/08/24 04:27:26;;;;;;;;;;;;;;;17.56;100.00;101766.31;5019414;28;20017;-78
2022/08/24 04:29:52;;;;;;;;;;;;;;;17.55;100.00;101767.28;5038877;28;19986;-78
2022/08/24 04:32:17;;;;;;;;;;;;;;;17.54;100.00;101768.25;5023376;28;19924;-78
2022/08/24 04:34:43;;;;;;;;;;;;;;;17.53;100.00;101771.88;5038647;28;20361;-78
2022/08/24 04:37:08;;;;;;;;;;;;;;;17.54;100.00;101776.28;5039263;28;19932;-78
2022/08/24 04:39:34;;;;;;;;;;;;;;;17.52;100.00;101768.34;5019553;28;19929;-78
2022/08/24 04:41:59;;;;;;;;;;;;;;;17.53;100.00;101769.22;5041711;28;19983;-78
2022/08/24 04:44:24;;;;;;;;;;;;;;;17.54;100.00;101770.91;5042866;28;20044;-78
2022/08/24 04:46:50;;;;;;;;;;;;;;;17.54;100.00;101769.09;5003954;28;20383;-78
2022/08/24 04:49:15;;;;;;;;;;;;;;;17.55;100.00;101767.28;5023308;28;19932;-78
2022/08/24 04:51:41;;;;;;;;;;;;;;;17.54;100.00;101768.25;5022497;28;20054;-78
2022/08/24 04:54:07;;;;;;;;;;;;;;;17.52;100.00;101760.31;5043503;28;20045;-78
2022/08/24 04:56:32;;;;;;;;;;;;;;;17.50;100.00;101767.56;5042701;28;19968;-78
2022/08/24 04:58:58;;;;;;;;;;;;;;;17.46;100.00;101761.53;5003118;28;20413;-78
2022/08/24 05:01:25;;;;;;;;;;;;;;;17.45;100.00;101766.97;5041457;28;19925;-78
2022/08/24 05:03:51;;;;;;;;;;;;;;;17.44;100.00;101766.09;5008651;28;19921;-78
2022/08/24 05:06:17;;;;;;;;;;;;;;;17.42;100.00;101773.38;4976267;28;19925;-78
2022/08/24 05:08:43;;;;;;;;;;;;;;;17.43;100.00;101780.44;4997310;28;19925;-78
2022/08/24 05:11:08;;;;;;;;;;;;;;;17.43;100.00;101785.81;4991004;28;19999;-78
2022/08/24 05:13:34;;;;;;;;;;;;;;;17.44;100.00;101786.69;4997984;28;19956;-78
2022/08/24 05:16:00;;;;;;;;;;;;;;;17.45;100.00;101789.28;5010686;28;19917;-78
2022/08/24 05:18:28;;;;;;;;;;;;;;;17.46;100.00;101785.63;5003409;28;20140;-78
2022/08/24 05:20:54;;;;;;;;;;;;;;;17.49;100.00;101790.78;5004954;28;19921;-78
2022/08/24 05:23:19;;;;;;;;;;;;;;;17.51;100.00;101788.91;5018976;28;20462;-78
2022/08/24 05:25:45;;;;;;;;;;;;;;;17.54;100.00;101784.31;4996755;28;20047;-78
2022/08/24 05:28:11;;;;;;;;;;;;;;;17.57;100.00;101786.78;5011577;28;19917;-78
2022/08/24 05:30:36;;;;;;;;;;;;;;;17.60;100.00;101790.13;5012848;28;19929;-78
2022/08/24 05:33:02;;;;;;;;;;;;;;;17.64;100.00;101791.69;5019006;28;19987;-78
2022/08/24 05:35:27;;;;;;;;;;;;;;;17.67;100.00;101796.00;5013550;28;19928;-78
2022/08/24 05:37:53;;;;;;;;;;;;;;;17.70;100.00;101793.13;5017931;28;19936;-78
2022/08/24 05:40:18;;;;;;;;;;;;;;;17.74;100.00;101793.78;5013250;28;21273;-79
2022/08/24 05:42:44;;;;;;;;;;;;;;;17.79;100.00;101794.38;5016597;28;19932;-78
2022/08/24 05:45:09;;;;;;;;;;;;;;;17.83;100.00;101795.06;5014356;28;19921;-79
2022/08/24 05:47:35;;;;;;;;;;;;;;;17.89;100.00;101797.38;5006225;28;20407;-79
2022/08/24 05:50:01;;;;;;;;;;;;;;;17.93;100.00;101804.25;4992175;28;19965;-79
2022/08/24 05:52:27;;;;;;;;;;;;;;;17.99;100.00;101806.56;5006851;28;20253;-79
2022/08/24 05:54:53;;;;;;;;;;;;;;;18.05;100.00;101814.22;5015893;28;19979;-79
2022/08/24 05:57:19;;;;;;;;;;;;;;;18.11;100.00;101810.31;5015779;28;19926;-81
2022/08/24 05:59:44;;;;;;;;;;;;;;;18.17;100.00;101817.97;5010264;28;19922;-79
2022/08/24 06:02:10;;;;;;;;;;;;;;;18.23;100.00;101810.50;5018206;28;20008;-80
2022/08/24 06:04:37;;;;;;;;;;;;;;;18.28;100.00;101808.38;5019452;28;19924;-80
2022/08/24 06:07:03;;;;;;;;;;;;;;;18.34;100.00;101804.47;5001412;28;19994;-80
2022/08/24 06:09:28;;;;;;;;;;;;;;;18.43;100.00;101806.56;4996101;28;20474;-79
2022/08/24 06:11:54;;;;;;;;;;;;;;;18.49;100.00;101803.50;4999014;28;19928;-79
2022/08/24 06:14:19;;;;;;;;;;;;;;;18.55;100.00;101800.44;5002332;28;20422;-81
2022/08/24 06:16:45;;;;;;;;;;;;;;;18.64;100.00;101804.34;5000459;28;19937;-82
2022/08/24 06:19:14;;;;;;;;;;;;;;;18.72;100.00;101811.88;4999128;28;19917;-82
2022/08/24 06:21:40;;;;;;;;;;;;;;;18.83;100.00;101817.41;5016942;28;19927;-82
2022/08/24 06:24:06;;;;;;;;;;;;;;;19.02;100.00;101808.19;4976229;28;19929;-80
2022/08/24 06:29:15;;;;;;;;;;;;;;;19.57;100.00;101820.66;4971191;28;20023;-81
2022/08/24 06:31:41;;;;;;;;;;;;;;;19.83;100.00;101823.38;5016942;28;20433;-85
2022/08/24 06:34:07;;;;;;;;;;;;;;;19.99;100.00;101824.03;5018307;28;20022;-86
2022/08/24 06:36:32;;;;;;;;;;;;;;;20.14;100.00;101827.47;5019614;28;20478;-85
2022/08/24 06:39:01;;;;;;;;;;;;;;;20.31;100.00;101828.09;5015532;28;20342;-85
2022/08/24 06:41:26;;;;;;;;;;;;;;;20.49;100.00;101825.94;5016690;28;20434;-80
2022/08/24 06:43:51;;;;;;;;;;;;;;;20.67;100.00;101825.56;5017746;28;19948;-79
2022/08/24 06:46:17;;;;;;;;;;;;;;;20.78;100.00;101822.94;5016404;28;20023;-80
2022/08/24 06:48:43;;;;;;;;;;;;;;;20.92;100.00;101829.16;5010126;28;19921;-80
2022/08/24 06:51:10;;;;;;;;;;;;;;;21.08;100.00;101826.19;5018213;28;19932;-88
2022/08/24 06:53:36;;;;;;;;;;;;;;;21.25;100.00;101823.06;5011358;28;19936;-87
2022/08/24 06:56:01;;;;;;;;;;;;;;;21.39;100.00;101826.53;4990539;28;20083;-85
2022/08/24 06:58:27;;;;;;;;;;;;;;;21.54;100.00;101817.31;5014132;28;20019;-87
2022/08/24 07:00:55;;;;;;;;;;;;;;;21.76;100.00;101831.84;5015068;28;19921;-84
2022/08/24 07:03:21;;;;;;;;;;;;;;;21.99;100.00;101813.00;5023240;28;19924;-82
2022/08/24 07:05:51;;;;;;;;;;;;;;;22.13;100.00;101820.00;5005300;28;20312;-85
2022/08/24 07:08:16;;;;;;;;;;;;;;;22.18;100.00;101823.16;5022046;28;19964;-79
2022/08/24 07:10:41;;;;;;;;;;;;;;;22.28;100.00;101825.13;5019975;28;20019;-84
2022/08/24 07:13:07;;;;;;;;;;;;;;;22.43;100.00;101829.28;5018877;28;21217;-84
2022/08/24 07:15:34;;;;;;;;;;;;;;;22.60;100.00;101835.22;4989620;28;19920;-85
2022/08/24 07:18:00;;;;;;;;;;;;;;;22.75;100.00;101822.28;5024643;28;19929;-87
2022/08/24 07:20:25;;;;;;;;;;;;;;;22.92;100.00;101835.25;5026451;28;19925;-88
2022/08/24 07:22:51;;;;;;;;;;;;;;;23.05;100.00;101832.38;5013777;28;20426;-87
2022/08/24 07:25:16;;;;;;;;;;;;;;;23.18;99.57;101834.91;5024901;28;19924;-86
2022/08/24 07:27:44;;;;;;;;;;;;;;;23.29;98.79;101842.13;5025770;28;20296;-86
2022/08/24 07:30:10;;;;;;;;;;;;;;;23.38;98.44;101839.66;5023127;28;19947;-85
2022/08/24 07:32:35;;;;;;;;;;;;;;;23.45;97.41;101847.09;5007509;28;19916;-85
2022/08/24 07:35:01;;;;;;;;;;;;;;;23.49;97.31;101845.00;5024053;28;19933;-89
2022/08/24 07:37:26;;;;;;;;;;;;;;;23.57;96.13;101844.31;5022034;28;19925;-86
2022/08/24 07:39:51;;;;;;;;;;;;;;;23.62;96.34;101849.34;5023682;28;20384;-88
2022/08/24 07:42:17;;;;;;;;;;;;;;;23.70;96.41;101855.78;5024977;28;19929;-87
2022/08/24 07:44:42;;;;;;;;;;;;;;;23.79;95.75;101861.41;5002639;28;19921;-90
2022/08/24 07:47:08;;;;;;;;;;;;;;;23.82;94.19;101850.34;5020162;28;19966;-87
2022/08/24 07:49:33;;;;;;;;;;;;;;;23.87;94.07;101864.31;5023426;28;19968;-86
2022/08/24 07:51:59;;;;;;;;;;;;;;;23.88;93.44;101860.63;5018867;28;19983;-88
2022/08/24 07:54:24;;;;;;;;;;;;;;;23.88;93.20;101849.81;5020909;28;19979;-88
2022/08/24 07:56:51;;;;;;;;;;;;;;;23.90;93.70;101855.09;5019406;28;19920;-88
2022/08/24 07:59:16;;;;;;;;;;;;;;;24.04;94.16;101849.31;5021244;28;20093;-86
2022/08/24 08:01:42;;;;;;;;;;;;;;;24.16;93.60;101860.94;5022353;28;19962;-83
2022/08/24 08:04:08;;;;;;;;;;;;;;;24.31;92.97;101858.72;5022377;28;20338;-88
2022/08/24 08:06:33;;;;;;;;;;;;;;;24.40;91.34;101870.59;4995375;28;19920;-86
2022/08/24 08:08:59;;;;;;;;;;;;;;;24.49;91.75;101869.75;5006681;28;19960;-88
2022/08/24 08:11:24;;;;;;;;;;;;;;;24.63;90.79;101879.34;5023439;28;19924;-92
2022/08/24 08:13:49;;;;;;;;;;;;;;;24.77;90.11;101871.81;5023127;28;19995;-91
2022/08/24 08:16:15;;;;;;;;;;;;;;;24.92;87.94;101880.44;5024539;28;20391;-88
2022/08/24 08:18:40;;;;;;;;;;;;;;;25.09;88.12;101885.19;4983955;28;19931;-89
2022/08/24 08:24:13;;;;;;;;;;;;;;;25.24;87.59;101884.78;5021399;28;21259;-86
2022/08/24 08:26:36;;;;;;;;;;;;;;;25.51;85.50;101883.19;5018012;28;19921;-88
2022/08/24 08:29:02;;;;;;;;;;;;;;;25.66;83.87;101889.06;5010854;28;19927;-87
2022/08/24 08:31:27;;;;;;;;;;;;;;;25.81;84.33;101884.03;5003907;28;20490;-88
2022/08/24 08:33:53;;;;;;;;;;;;;;;25.91;83.06;101886.72;5024169;28;19997;-88
2022/08/24 08:36:20;;;;;;;;;;;;;;;26.01;83.55;101884.88;5022981;28;20549;-90
2022/08/24 08:38:46;;;;;;;;;;;;;;;26.15;83.58;101878.09;5001182;28;19987;-91
2022/08/24 08:41:17;;;;;;;;;;;;;;;26.25;81.06;101874.53;5000907;28;19920;-88
2022/08/24 08:43:51;;;;;;;;;;;;;;;26.36;81.20;101882.47;5022309;28;20000;-90
2022/08/24 08:46:22;;;;;;;;;;;;;;;26.46;80.58;101890.56;5019667;28;19928;-88
2022/08/24 08:49:06;;;;;;;;;;;;;;;26.49;80.25;101873.13;5023253;28;19931;-84
2022/08/24 08:51:35;;;;;;;;;;;;;;;26.60;80.41;101886.53;5019981;28;19948;-88
2022/08/24 08:54:01;;;;;;;;;;;;;;;26.73;81.02;101888.03;5000955;28;20288;-85
2022/08/24 08:56:45;;;;;;;;;;;;;;;26.92;79.50;101881.66;5019363;28;19928;-86
2022/08/24 08:59:13;;;;;;;;;;;;;;;27.02;77.97;101887.00;5022747;28;19924;-88
2022/08/24 09:01:44;;;;;;;;;;;;;;;27.13;78.00;101885.94;5011595;28;19928;-86
2022/08/24 09:04:10;;;;;;;;;;;;;;;27.23;77.83;101890.28;5023357;28;19951;-86
2022/08/24 09:06:48;;;;;;;;;;;;;;;27.22;74.28;101887.69;5020151;28;20041;-80
2022/08/24 09:09:17;;;;;;;;;;;;;;;27.14;75.99;101893.06;5016467;28;21379;-84
2022/08/24 09:11:42;;;;;;;;;;;;;;;27.22;77.01;101887.69;5020013;28;20592;-89
2022/08/24 09:14:10;;;;;;;;;;;;;;;27.21;76.00;101888.72;5021095;28;19925;-90
2022/08/24 09:16:39;;;;;;;;;;;;;;;27.21;75.93;101888.72;5018801;28;19921;-84
2022/08/24 09:19:11;;;;;;;;;;;;;;;27.33;79.56;101887.47;5019715;28;20644;-86
2022/08/24 09:21:44;;;;;;;;;;;;;;;27.52;77.03;101888.31;5001753;28;19928;-87
2022/08/24 09:24:16;;;;;;;;;;;;;;;27.63;79.07;101887.25;5001508;28;19979;-88
2022/08/24 09:26:47;;;;;;;;;;;;;;;27.77;75.87;101889.41;5022272;28;20359;-87
2022/08/24 09:29:17;;;;;;;;;;;;;;;27.90;75.40;101890.84;5005997;28;20068;-83
2022/08/24 09:32:01;;;;;;;;;;;;;;;28.04;76.18;101898.41;5023970;28;20518;-86
2022/08/24 09:34:30;;;;;;;;;;;;;;;28.18;75.30;101901.56;5020873;28;19925;-87
2022/08/24 09:37:11;;;;;;;;;;;;;;;28.29;74.29;101898.59;5018445;28;19941;-84
2022/08/24 09:39:36;;;;;;;;;;;;;;;28.33;72.88;101899.13;5025897;28;20040;-87
2022/08/24 09:42:04;;;;;;;;;;;;;;;28.30;70.15;101902.16;5023104;28;19925;-83
2022/08/24 09:44:42;;;;;;;;;;;;;;;28.26;74.22;101898.91;5023378;28;19925;-85
2022/08/24 09:47:14;;;;;;;;;;;;;;;28.32;76.50;101894.72;5024842;28;20423;-86
2022/08/24 09:49:45;;;;;;;;;;;;;;;28.36;75.37;101897.97;5025160;28;19921;-84
2022/08/24 09:52:14;;;;;;;;;;;;;;;28.40;75.92;101899.31;5023317;28;20498;-84
2022/08/24 09:54:45;;;;;;;;;;;;;;;28.31;68.11;101904.72;5005597;28;19925;-85
2022/08/24 09:57:23;;;;;;;;;;;;;;;28.26;72.71;101900.78;5022610;28;19928;-85
2022/08/24 09:59:49;;;;;;;;;;;;;;;28.36;73.63;101900.69;5027095;28;19949;-83
2022/08/24 10:02:15;;;;;;;;;;;;;;;28.40;74.23;101896.59;5007195;28;20063;-85
2022/08/24 10:04:43;;;;;;;;;;;;;;;28.32;71.33;101897.44;5045065;28;20451;-86
2022/08/24 10:07:29;;;;;;;;;;;;;;;28.28;70.41;101894.16;5044396;28;19920;-83
2022/08/24 10:10:13;;;;;;;;;;;;;;;28.18;69.49;101899.72;5034092;28;19928;-84
2022/08/24 10:12:38;;;;;;;;;;;;;;;28.08;70.36;101904.41;5024586;28;19917;-84
2022/08/24 10:15:08;;;;;;;;;;;;;;;28.03;71.86;101898.56;5016032;28;19920;-84
2022/08/24 10:17:34;;;;;;;;;;;;;;;28.02;71.39;101895.00;5031163;28;21317;-87
2022/08/24 10:19:59;;;;;;;;;;;;;;;28.05;70.42;101891.97;5042311;28;19924;-84
2022/08/24 10:22:43;;;;;;;;;;;;;;;28.01;70.89;101895.16;5042800;28;19925;-82
2022/08/24 10:25:14;;;;;;;;;;;;;;;27.95;71.53;101896.66;5026368;28;19938;-87
2022/08/24 10:27:58;;;;;;;;;;;;;;;27.90;71.92;101890.84;5046197;28;20010;-90
2022/08/24 10:30:26;;;;;;;;;;;;;;;27.84;71.72;101881.47;5044357;28;19931;-86
2022/08/24 10:33:01;;;;;;;;;;;;;;;27.81;71.59;101880.91;5046512;28;20669;-85
2022/08/24 10:35:31;;;;;;;;;;;;;;;27.80;69.58;101882.78;5041770;28;20636;-91
2022/08/24 10:39:39;;;;;;;;;;;;;;;27.67;67.98;101885.91;5005137;28;19952;-91
2022/08/24 10:40:45;;;;;;;;;;;;;;;27.53;70.68;101884.59;5035716;28;20281;-92
2022/08/24 10:43:34;;;;;;;;;;;;;;;27.45;71.46;101884.53;5027381;28;19925;-78
2022/08/24 10:46:06;;;;;;;;;;;;;;;27.41;69.70;101880.41;5028614;28;20327;-78
2022/08/24 10:48:31;;;;;;;;;;;;;;;27.35;69.69;101880.00;5038204;28;19930;-78
2022/08/24 10:50:58;;;;;;;;;;;;;;;27.30;69.83;101876.94;5042941;28;19924;-78
2022/08/24 10:53:33;;;;;;;;;;;;;;;27.29;71.88;101879.81;5024154;28;20717;-78
2022/08/24 10:56:05;;;;;;;;;;;;;;;27.23;69.72;101882.13;5043249;28;20406;-78
2022/08/24 10:58:32;;;;;;;;;;;;;;;27.21;70.18;101883.28;5044123;28;19921;-78
2022/08/24 11:01:11;;;;;;;;;;;;;;;27.30;70.28;101884.22;5043204;28;19925;-78
2022/08/24 11:03:46;;;;;;;;;;;;;;;27.35;69.42;101881.91;5026082;28;19920;-78
2022/08/24 11:06:15;;;;;;;;;;;;;;;27.36;68.74;101887.19;5019618;28;19928;-78
2022/08/24 11:08:40;;;;;;;;;;;;;;;27.36;68.38;101892.63;4998612;28;19917;-77
2022/08/24 11:11:06;;;;;;;;;;;;;;;27.37;69.34;101894.31;4999387;28;20006;-77
2022/08/24 11:13:32;;;;;;;;;;;;;;;27.44;70.08;101888.25;5019176;28;20410;-78
2022/08/24 11:15:58;;;;;;;;;;;;;;;27.44;68.07;101882.81;5017913;28;20016;-77
2022/08/24 11:18:24;;;;;;;;;;;;;;;27.42;68.58;101888.41;5002217;28;19921;-77
2022/08/24 11:20:52;;;;;;;;;;;;;;;27.41;68.70;101885.84;4999972;28;19921;-77
2022/08/24 11:23:21;;;;;;;;;;;;;;;27.48;70.28;101886.91;5001966;28;19925;-77
2022/08/24 11:25:55;;;;;;;;;;;;;;;27.52;68.09;101889.16;5002391;28;19979;-77
2022/08/24 11:28:24;;;;;;;;;;;;;;;27.49;67.58;101886.78;5021424;28;20375;-77
2022/08/24 11:30:49;;;;;;;;;;;;;;;27.51;67.42;101892.91;5020684;28;19925;-77
2022/08/24 11:33:24;;;;;;;;;;;;;;;27.55;67.09;101888.00;5001973;28;19921;-74
2022/08/24 11:35:49;;;;;;;;;;;;;;;27.54;65.23;101885.47;4999287;28;19931;-75
2022/08/24 11:38:26;;;;;;;;;;;;;;;27.59;67.90;101877.69;5018010;28;19921;-76
2022/08/24 11:40:51;;;;;;;;;;;;;;;27.61;67.33;101870.25;5019579;28;19925;-76
2022/08/24 11:43:29;;;;;;;;;;;;;;;27.61;68.46;101875.69;5022667;28;19924;-76
2022/08/24 11:46:02;;;;;;;;;;;;;;;27.58;67.75;101878.72;5016118;28;19994;-77
2022/08/24 11:48:28;;;;;;;;;;;;;;;27.57;67.19;101877.00;4998479;28;19927;-76
2022/08/24 11:50:58;;;;;;;;;;;;;;;27.53;67.11;101873.72;4999111;28;20487;-77
2022/08/24 11:53:26;;;;;;;;;;;;;;;27.50;67.09;101879.44;4982711;28;19928;-76
2022/08/24 11:55:52;;;;;;;;;;;;;;;27.46;67.85;101876.19;5020403;28;19921;-77
2022/08/24 11:58:29;;;;;;;;;;;;;;;27.40;66.59;101876.84;5020490;28;19929;-76
2022/08/24 12:00:54;;;;;;;;;;;;;;;27.44;67.35;101872.78;5017904;28;19927;-76
2022/08/24 12:03:29;;;;;;;;;;;;;;;27.48;67.26;101868.75;5029902;28;19921;-76
2022/08/24 12:05:57;;;;;;;;;;;;;;;27.54;65.99;101880.84;5037161;28;19967;-76
2022/08/24 12:08:33;;;;;;;;;;;;;;;27.56;66.11;101870.66;5041955;28;19996;-77
2022/08/24 12:10:59;;;;;;;;;;;;;;;27.63;67.74;101874.50;5039908;28;19967;-77
2022/08/24 12:13:32;;;;;;;;;;;;;;;27.79;67.25;101879.19;5041762;28;20815;-77
2022/08/24 12:15:58;;;;;;;;;;;;;;;27.97;66.13;101877.44;5038716;28;20564;-77
2022/08/24 12:18:25;;;;;;;;;;;;;;;28.05;65.38;101878.34;5035002;28;19928;-77
2022/08/24 12:20:51;;;;;;;;;;;;;;;28.15;63.94;101877.41;5041919;28;20410;-76
2022/08/24 12:23:24;;;;;;;;;;;;;;;28.11;64.77;101876.84;5038657;28;19955;-76
2022/08/24 12:26:00;;;;;;;;;;;;;;;28.09;63.61;101876.16;5020370;28;19990;-77
2022/08/24 12:28:28;;;;;;;;;;;;;;;28.12;65.39;101883.16;5023430;28;19920;-77
2022/08/24 12:30:53;;;;;;;;;;;;;;;28.08;62.57;101888.06;5041711;28;20466;-77
2022/08/24 12:33:19;;;;;;;;;;;;;;;27.95;62.41;101883.06;5015738;28;19931;-79
2022/08/24 12:35:45;;;;;;;;;;;;;;;27.91;63.42;101882.53;5012815;28;19924;-77
2022/08/24 12:38:10;;;;;;;;;;;;;;;27.95;63.50;101884.91;5023425;28;19927;-77
2022/08/24 12:40:39;;;;;;;;;;;;;;;27.92;65.64;101877.94;5032853;28;20398;-78
2022/08/24 12:43:10;;;;;;;;;;;;;;;27.85;62.77;101876.88;5035618;28;20367;-77
2022/08/24 12:45:36;;;;;;;;;;;;;;;27.82;65.79;101874.47;5010134;28;19925;-77
2022/08/24 12:48:22;;;;;;;;;;;;;;;27.78;64.45;101868.50;5017828;28;19921;-77
2022/08/24 12:50:51;;;;;;;;;;;;;;;27.75;65.40;101875.13;5013385;28;20545;-77
2022/08/24 12:53:19;;;;;;;;;;;;;;;27.77;64.50;101881.25;5041591;28;19932;-78